sensor_id;sensor_type;location;lat;lon;timestamp;P1;durP1;ratioP1;P2;durP2;ratioP2
58214;SDS011;44011;52.218;1.480;2022-12-05T00:02:01;10.95;;;6.30;;
58214;SDS011;44011;52.218;1.480;2022-12-05T00:04:26;8.70;;;5.95;;
58214;SDS011;44011;52.218;1.480;2022-12-05T00:06:52;16.40;;;8.15;;
58214;SDS011;44011;52.218;1.480;2022-12-05T00:09:17;9.95;;;6.70;;
58214;SDS011;44011;52.218;1.480;2022-12-05T00:11:43;14.00;;;7.22;;
58214;SDS011;44011;52.218;1.480;2022-12-05T00:14:09;28.45;;;6.70;;
58214;SDS011;44011;52.218;1.480;2022-12-05T00:16:36;11.20;;;7.10;;
58214;SDS011;44011;52.218;1.480;2022-12-05T00:19:03;10.88;;;6.38;;
58214;SDS011;44011;52.218;1.480;2022-12-05T00:21:34;12.05;;;7.00;;
58214;SDS011;44011;52.218;1.480;2022-12-05T00:24:00;12.95;;;7.82;;
58214;SDS011;44011;52.218;1.480;2022-12-05T00:26:26;11.48;;;7.18;;
58214;SDS011;44011;52.218;1.480;2022-12-05T00:28:52;14.88;;;7.35;;
58214;SDS011;44011;52.218;1.480;2022-12-05T00:31:18;13.40;;;7.78;;
58214;SDS011;44011;52.218;1.480;2022-12-05T00:33:44;15.82;;;7.85;;
58214;SDS011;44011;52.218;1.480;2022-12-05T00:36:13;12.50;;;7.50;;
58214;SDS011;44011;52.218;1.480;2022-12-05T00:38:39;14.27;;;7.25;;
58214;SDS011;44011;52.218;1.480;2022-12-05T00:41:06;12.40;;;6.93;;
58214;SDS011;44011;52.218;1.480;2022-12-05T00:43:32;12.82;;;6.95;;
58214;SDS011;44011;52.218;1.480;2022-12-05T00:46:04;15.85;;;7.78;;
58214;SDS011;44011;52.218;1.480;2022-12-05T00:48:30;12.13;;;7.53;;
58214;SDS011;44011;52.218;1.480;2022-12-05T00:51:03;13.18;;;7.30;;
58214;SDS011;44011;52.218;1.480;2022-12-05T00:53:29;13.55;;;7.50;;
58214;SDS011;44011;52.218;1.480;2022-12-05T00:55:54;17.55;;;7.55;;
58214;SDS011;44011;52.218;1.480;2022-12-05T00:58:20;13.02;;;7.65;;
58214;SDS011;44011;52.218;1.480;2022-12-05T01:00:45;12.07;;;7.03;;
58214;SDS011;44011;52.218;1.480;2022-12-05T01:03:10;13.02;;;7.47;;
58214;SDS011;44011;52.218;1.480;2022-12-05T01:05:36;13.65;;;7.15;;
58214;SDS011;44011;52.218;1.480;2022-12-05T01:08:01;15.35;;;6.97;;
58214;SDS011;44011;52.218;1.480;2022-12-05T01:10:26;12.38;;;6.90;;
58214;SDS011;44011;52.218;1.480;2022-12-05T01:12:52;9.85;;;6.32;;
58214;SDS011;44011;52.218;1.480;2022-12-05T01:15:17;10.63;;;6.63;;
58214;SDS011;44011;52.218;1.480;2022-12-05T01:17:43;10.02;;;6.05;;
58214;SDS011;44011;52.218;1.480;2022-12-05T01:20:08;9.18;;;6.20;;
58214;SDS011;44011;52.218;1.480;2022-12-05T01:22:34;13.73;;;6.20;;
58214;SDS011;44011;52.218;1.480;2022-12-05T01:24:59;14.23;;;7.03;;
58214;SDS011;44011;52.218;1.480;2022-12-05T01:27:24;10.88;;;6.90;;
58214;SDS011;44011;52.218;1.480;2022-12-05T01:29:50;9.80;;;6.72;;
58214;SDS011;44011;52.218;1.480;2022-12-05T01:32:15;13.90;;;7.28;;
58214;SDS011;44011;52.218;1.480;2022-12-05T01:34:40;13.40;;;7.57;;
58214;SDS011;44011;52.218;1.480;2022-12-05T01:37:06;12.82;;;7.25;;
58214;SDS011;44011;52.218;1.480;2022-12-05T01:39:31;14.80;;;7.45;;
58214;SDS011;44011;52.218;1.480;2022-12-05T01:41:57;12.35;;;7.53;;
58214;SDS011;44011;52.218;1.480;2022-12-05T01:46:48;12.20;;;7.53;;
58214;SDS011;44011;52.218;1.480;2022-12-05T01:49:36;15.65;;;8.05;;
58214;SDS011;44011;52.218;1.480;2022-12-05T01:52:01;13.57;;;8.07;;
58214;SDS011;44011;52.218;1.480;2022-12-05T01:54:28;12.75;;;8.65;;
58214;SDS011;44011;52.218;1.480;2022-12-05T01:57:01;14.65;;;7.97;;
58214;SDS011;44011;52.218;1.480;2022-12-05T01:59:28;16.83;;;8.60;;
58214;SDS011;44011;52.218;1.480;2022-12-05T02:01:54;13.43;;;8.30;;
58214;SDS011;44011;52.218;1.480;2022-12-05T02:04:20;15.60;;;7.93;;
58214;SDS011;44011;52.218;1.480;2022-12-05T02:06:45;14.15;;;8.02;;
58214;SDS011;44011;52.218;1.480;2022-12-05T02:09:11;10.63;;;6.93;;
58214;SDS011;44011;52.218;1.480;2022-12-05T02:11:37;8.70;;;6.45;;
58214;SDS011;44011;52.218;1.480;2022-12-05T02:14:18;16.27;;;7.32;;
58214;SDS011;44011;52.218;1.480;2022-12-05T02:24:26;11.02;;;7.00;;
58214;SDS011;44011;52.218;1.480;2022-12-05T02:32:30;10.10;;;5.93;;
58214;SDS011;44011;52.218;1.480;2022-12-05T02:37:28;7.80;;;5.78;;
58214;SDS011;44011;52.218;1.480;2022-12-05T02:40:00;6.55;;;5.20;;
58214;SDS011;44011;52.218;1.480;2022-12-05T02:42:28;11.05;;;5.78;;
58214;SDS011;44011;52.218;1.480;2022-12-05T02:44:56;12.90;;;6.50;;
58214;SDS011;44011;52.218;1.480;2022-12-05T02:47:24;10.60;;;6.72;;
58214;SDS011;44011;52.218;1.480;2022-12-05T02:49:50;6.57;;;5.15;;
58214;SDS011;44011;52.218;1.480;2022-12-05T02:52:17;8.40;;;6.00;;
58214;SDS011;44011;52.218;1.480;2022-12-05T02:54:43;11.98;;;5.93;;
58214;SDS011;44011;52.218;1.480;2022-12-05T02:57:09;10.38;;;5.32;;
58214;SDS011;44011;52.218;1.480;2022-12-05T02:59:35;10.50;;;5.68;;
58214;SDS011;44011;52.218;1.480;2022-12-05T03:02:01;9.43;;;5.82;;
58214;SDS011;44011;52.218;1.480;2022-12-05T03:04:27;10.13;;;6.13;;
58214;SDS011;44011;52.218;1.480;2022-12-05T03:06:55;8.13;;;6.05;;
58214;SDS011;44011;52.218;1.480;2022-12-05T03:09:24;20.67;;;7.45;;
58214;SDS011;44011;52.218;1.480;2022-12-05T03:12:09;8.70;;;5.85;;
58214;SDS011;44011;52.218;1.480;2022-12-05T03:14:41;8.93;;;6.00;;
58214;SDS011;44011;52.218;1.480;2022-12-05T03:17:09;12.02;;;6.65;;
58214;SDS011;44011;52.218;1.480;2022-12-05T03:19:42;12.93;;;6.75;;
58214;SDS011;44011;52.218;1.480;2022-12-05T03:22:19;13.55;;;8.27;;
58214;SDS011;44011;52.218;1.480;2022-12-05T03:24:45;17.63;;;8.02;;
58214;SDS011;44011;52.218;1.480;2022-12-05T03:34:48;13.32;;;7.50;;
58214;SDS011;44011;52.218;1.480;2022-12-05T03:37:18;15.93;;;7.10;;
58214;SDS011;44011;52.218;1.480;2022-12-05T03:39:46;14.13;;;8.40;;
58214;SDS011;44011;52.218;1.480;2022-12-05T03:42:13;14.20;;;6.65;;
58214;SDS011;44011;52.218;1.480;2022-12-05T03:44:49;12.90;;;6.57;;
58214;SDS011;44011;52.218;1.480;2022-12-05T03:47:24;10.20;;;6.43;;
58214;SDS011;44011;52.218;1.480;2022-12-05T03:49:54;27.00;;;6.88;;
58214;SDS011;44011;52.218;1.480;2022-12-05T03:52:35;11.43;;;6.38;;
58214;SDS011;44011;52.218;1.480;2022-12-05T03:55:04;16.70;;;6.68;;
58214;SDS011;44011;52.218;1.480;2022-12-05T03:57:35;11.18;;;5.75;;
58214;SDS011;44011;52.218;1.480;2022-12-05T04:00:05;8.63;;;5.68;;
58214;SDS011;44011;52.218;1.480;2022-12-05T04:02:37;11.68;;;5.32;;
58214;SDS011;44011;52.218;1.480;2022-12-05T04:05:11;9.77;;;5.97;;
58214;SDS011;44011;52.218;1.480;2022-12-05T04:07:38;8.07;;;4.40;;
58214;SDS011;44011;52.218;1.480;2022-12-05T04:10:06;9.45;;;5.18;;
58214;SDS011;44011;52.218;1.480;2022-12-05T04:12:32;13.35;;;5.82;;
58214;SDS011;44011;52.218;1.480;2022-12-05T04:15:00;9.45;;;5.15;;
58214;SDS011;44011;52.218;1.480;2022-12-05T04:19:59;12.85;;;6.43;;
58214;SDS011;44011;52.218;1.480;2022-12-05T04:25:10;10.13;;;5.87;;
58214;SDS011;44011;52.218;1.480;2022-12-05T04:30:38;9.98;;;6.05;;
58214;SDS011;44011;52.218;1.480;2022-12-05T04:35:34;9.15;;;4.57;;
58214;SDS011;44011;52.218;1.480;2022-12-05T04:38:05;11.88;;;5.82;;
58214;SDS011;44011;52.218;1.480;2022-12-05T04:40:36;10.65;;;5.45;;
58214;SDS011;44011;52.218;1.480;2022-12-05T04:43:02;10.77;;;5.28;;
58214;SDS011;44011;52.218;1.480;2022-12-05T04:45:28;10.35;;;5.57;;
58214;SDS011;44011;52.218;1.480;2022-12-05T04:47:55;7.35;;;4.78;;
58214;SDS011;44011;52.218;1.480;2022-12-05T04:50:22;14.40;;;5.47;;
58214;SDS011;44011;52.218;1.480;2022-12-05T04:52:49;11.55;;;5.32;;
58214;SDS011;44011;52.218;1.480;2022-12-05T04:55:18;8.48;;;5.45;;
58214;SDS011;44011;52.218;1.480;2022-12-05T04:57:52;8.95;;;5.50;;
58214;SDS011;44011;52.218;1.480;2022-12-05T05:00:19;12.25;;;5.18;;
58214;SDS011;44011;52.218;1.480;2022-12-05T05:05:14;11.80;;;4.90;;
58214;SDS011;44011;52.218;1.480;2022-12-05T05:07:44;11.70;;;5.97;;
58214;SDS011;44011;52.218;1.480;2022-12-05T05:10:10;8.48;;;5.10;;
58214;SDS011;44011;52.218;1.480;2022-12-05T05:12:36;10.30;;;6.93;;
58214;SDS011;44011;52.218;1.480;2022-12-05T05:15:02;13.20;;;6.90;;
58214;SDS011;44011;52.218;1.480;2022-12-05T05:17:27;12.50;;;6.30;;
58214;SDS011;44011;52.218;1.480;2022-12-05T05:19:52;14.52;;;6.68;;
58214;SDS011;44011;52.218;1.480;2022-12-05T05:22:38;10.30;;;6.65;;
58214;SDS011;44011;52.218;1.480;2022-12-05T05:25:03;8.98;;;5.88;;
58214;SDS011;44011;52.218;1.480;2022-12-05T05:27:29;14.25;;;7.22;;
58214;SDS011;44011;52.218;1.480;2022-12-05T05:29:54;14.80;;;7.63;;
58214;SDS011;44011;52.218;1.480;2022-12-05T05:32:19;9.63;;;5.85;;
58214;SDS011;44011;52.218;1.480;2022-12-05T05:34:44;11.55;;;6.20;;
58214;SDS011;44011;52.218;1.480;2022-12-05T05:37:10;12.65;;;6.30;;
58214;SDS011;44011;52.218;1.480;2022-12-05T05:39:35;12.38;;;6.15;;
58214;SDS011;44011;52.218;1.480;2022-12-05T05:42:00;9.52;;;6.38;;
58214;SDS011;44011;52.218;1.480;2022-12-05T05:44:26;11.05;;;5.57;;
58214;SDS011;44011;52.218;1.480;2022-12-05T05:46:51;8.57;;;5.30;;
58214;SDS011;44011;52.218;1.480;2022-12-05T05:49:16;8.82;;;5.50;;
58214;SDS011;44011;52.218;1.480;2022-12-05T05:51:41;10.20;;;5.35;;
58214;SDS011;44011;52.218;1.480;2022-12-05T05:54:07;10.75;;;4.97;;
58214;SDS011;44011;52.218;1.480;2022-12-05T05:56:33;10.65;;;5.38;;
58214;SDS011;44011;52.218;1.480;2022-12-05T05:58:59;9.60;;;5.32;;
58214;SDS011;44011;52.218;1.480;2022-12-05T06:01:25;9.38;;;5.70;;
58214;SDS011;44011;52.218;1.480;2022-12-05T06:03:50;7.32;;;4.90;;
58214;SDS011;44011;52.218;1.480;2022-12-05T06:06:16;14.98;;;6.18;;
58214;SDS011;44011;52.218;1.480;2022-12-05T06:08:42;9.85;;;5.40;;
58214;SDS011;44011;52.218;1.480;2022-12-05T06:11:11;10.77;;;5.45;;
58214;SDS011;44011;52.218;1.480;2022-12-05T06:13:36;7.05;;;4.53;;
58214;SDS011;44011;52.218;1.480;2022-12-05T06:16:03;9.10;;;5.00;;
58214;SDS011;44011;52.218;1.480;2022-12-05T06:18:29;9.40;;;4.68;;
58214;SDS011;44011;52.218;1.480;2022-12-05T06:20:55;10.18;;;4.72;;
58214;SDS011;44011;52.218;1.480;2022-12-05T06:23:20;8.40;;;4.72;;
58214;SDS011;44011;52.218;1.480;2022-12-05T06:25:47;10.50;;;5.43;;
58214;SDS011;44011;52.218;1.480;2022-12-05T06:28:12;9.65;;;4.82;;
58214;SDS011;44011;52.218;1.480;2022-12-05T06:30:38;16.27;;;5.13;;
58214;SDS011;44011;52.218;1.480;2022-12-05T06:33:03;7.32;;;4.28;;
58214;SDS011;44011;52.218;1.480;2022-12-05T06:35:28;7.28;;;4.93;;
58214;SDS011;44011;52.218;1.480;2022-12-05T06:37:54;9.43;;;4.78;;
58214;SDS011;44011;52.218;1.480;2022-12-05T06:40:19;7.10;;;5.20;;
58214;SDS011;44011;52.218;1.480;2022-12-05T06:42:45;8.13;;;4.07;;
58214;SDS011;44011;52.218;1.480;2022-12-05T06:45:10;5.93;;;4.55;;
58214;SDS011;44011;52.218;1.480;2022-12-05T06:47:35;8.32;;;4.88;;
58214;SDS011;44011;52.218;1.480;2022-12-05T06:50:01;8.43;;;5.40;;
58214;SDS011;44011;52.218;1.480;2022-12-05T06:52:26;10.30;;;5.20;;
58214;SDS011;44011;52.218;1.480;2022-12-05T06:54:52;8.48;;;5.25;;
58214;SDS011;44011;52.218;1.480;2022-12-05T06:57:17;11.75;;;4.90;;
58214;SDS011;44011;52.218;1.480;2022-12-05T06:59:42;7.32;;;5.15;;
58214;SDS011;44011;52.218;1.480;2022-12-05T07:02:08;9.90;;;5.65;;
58214;SDS011;44011;52.218;1.480;2022-12-05T07:04:35;9.30;;;4.72;;
58214;SDS011;44011;52.218;1.480;2022-12-05T07:07:00;10.98;;;5.93;;
58214;SDS011;44011;52.218;1.480;2022-12-05T07:09:26;7.72;;;6.38;;
58214;SDS011;44011;52.218;1.480;2022-12-05T07:12:10;9.63;;;4.70;;
58214;SDS011;44011;52.218;1.480;2022-12-05T07:14:36;8.65;;;4.72;;
58214;SDS011;44011;52.218;1.480;2022-12-05T07:17:01;6.65;;;4.35;;
58214;SDS011;44011;52.218;1.480;2022-12-05T07:19:26;10.43;;;4.90;;
58214;SDS011;44011;52.218;1.480;2022-12-05T07:21:51;10.02;;;5.53;;
58214;SDS011;44011;52.218;1.480;2022-12-05T07:24:17;6.35;;;4.47;;
58214;SDS011;44011;52.218;1.480;2022-12-05T07:26:42;7.40;;;5.22;;
58214;SDS011;44011;52.218;1.480;2022-12-05T07:29:08;9.82;;;4.90;;
58214;SDS011;44011;52.218;1.480;2022-12-05T07:31:33;7.28;;;4.50;;
58214;SDS011;44011;52.218;1.480;2022-12-05T07:34:00;7.25;;;4.15;;
58214;SDS011;44011;52.218;1.480;2022-12-05T07:36:25;9.85;;;4.82;;
58214;SDS011;44011;52.218;1.480;2022-12-05T07:38:54;5.93;;;3.92;;
58214;SDS011;44011;52.218;1.480;2022-12-05T07:41:22;8.27;;;4.50;;
58214;SDS011;44011;52.218;1.480;2022-12-05T07:43:51;8.27;;;4.32;;
58214;SDS011;44011;52.218;1.480;2022-12-05T07:46:16;6.65;;;3.97;;
58214;SDS011;44011;52.218;1.480;2022-12-05T07:48:42;7.03;;;4.20;;
58214;SDS011;44011;52.218;1.480;2022-12-05T07:51:07;10.18;;;4.93;;
58214;SDS011;44011;52.218;1.480;2022-12-05T07:53:33;8.57;;;4.45;;
58214;SDS011;44011;52.218;1.480;2022-12-05T07:56:03;8.25;;;4.55;;
58214;SDS011;44011;52.218;1.480;2022-12-05T07:58:29;7.25;;;4.10;;
58214;SDS011;44011;52.218;1.480;2022-12-05T08:00:55;5.72;;;4.03;;
58214;SDS011;44011;52.218;1.480;2022-12-05T08:03:20;13.13;;;5.10;;
58214;SDS011;44011;52.218;1.480;2022-12-05T08:05:45;12.23;;;4.72;;
58214;SDS011;44011;52.218;1.480;2022-12-05T08:08:11;5.50;;;4.03;;
58214;SDS011;44011;52.218;1.480;2022-12-05T08:10:36;7.82;;;4.40;;
58214;SDS011;44011;52.218;1.480;2022-12-05T08:13:01;10.05;;;5.57;;
58214;SDS011;44011;52.218;1.480;2022-12-05T08:15:27;6.43;;;4.63;;
58214;SDS011;44011;52.218;1.480;2022-12-05T08:17:52;7.55;;;4.88;;
58214;SDS011;44011;52.218;1.480;2022-12-05T08:20:17;6.60;;;4.30;;
58214;SDS011;44011;52.218;1.480;2022-12-05T08:22:43;8.10;;;4.50;;
58214;SDS011;44011;52.218;1.480;2022-12-05T08:25:08;11.70;;;4.85;;
58214;SDS011;44011;52.218;1.480;2022-12-05T08:27:34;9.80;;;4.50;;
58214;SDS011;44011;52.218;1.480;2022-12-05T08:29:59;8.57;;;4.93;;
58214;SDS011;44011;52.218;1.480;2022-12-05T08:32:25;8.02;;;4.60;;
58214;SDS011;44011;52.218;1.480;2022-12-05T08:34:51;18.27;;;5.30;;
58214;SDS011;44011;52.218;1.480;2022-12-05T08:37:16;12.40;;;5.20;;
58214;SDS011;44011;52.218;1.480;2022-12-05T08:39:42;10.45;;;4.88;;
58214;SDS011;44011;52.218;1.480;2022-12-05T08:42:07;10.05;;;5.40;;
58214;SDS011;44011;52.218;1.480;2022-12-05T08:44:32;9.02;;;4.82;;
58214;SDS011;44011;52.218;1.480;2022-12-05T08:46:58;9.15;;;5.05;;
58214;SDS011;44011;52.218;1.480;2022-12-05T08:49:23;7.18;;;4.80;;
58214;SDS011;44011;52.218;1.480;2022-12-05T08:51:48;9.60;;;4.85;;
58214;SDS011;44011;52.218;1.480;2022-12-05T08:54:14;11.50;;;5.22;;
58214;SDS011;44011;52.218;1.480;2022-12-05T08:56:39;10.43;;;4.93;;
58214;SDS011;44011;52.218;1.480;2022-12-05T08:59:05;11.77;;;4.93;;
58214;SDS011;44011;52.218;1.480;2022-12-05T09:01:31;7.50;;;4.95;;
58214;SDS011;44011;52.218;1.480;2022-12-05T09:03:57;7.63;;;5.00;;
58214;SDS011;44011;52.218;1.480;2022-12-05T09:06:24;8.85;;;4.32;;
58214;SDS011;44011;52.218;1.480;2022-12-05T09:08:53;9.45;;;4.32;;
58214;SDS011;44011;52.218;1.480;2022-12-05T09:11:20;9.93;;;4.35;;
58214;SDS011;44011;52.218;1.480;2022-12-05T09:13:48;11.75;;;4.80;;
58214;SDS011;44011;52.218;1.480;2022-12-05T09:16:15;11.15;;;4.85;;
58214;SDS011;44011;52.218;1.480;2022-12-05T09:18:41;8.95;;;4.45;;
58214;SDS011;44011;52.218;1.480;2022-12-05T09:21:16;10.48;;;4.78;;
58214;SDS011;44011;52.218;1.480;2022-12-05T09:26:09;8.40;;;4.40;;
58214;SDS011;44011;52.218;1.480;2022-12-05T09:28:36;8.40;;;5.20;;
58214;SDS011;44011;52.218;1.480;2022-12-05T09:31:02;10.32;;;5.22;;
58214;SDS011;44011;52.218;1.480;2022-12-05T09:33:28;10.18;;;5.13;;
58214;SDS011;44011;52.218;1.480;2022-12-05T09:35:54;13.60;;;5.80;;
58214;SDS011;44011;52.218;1.480;2022-12-05T09:38:21;7.00;;;3.97;;
58214;SDS011;44011;52.218;1.480;2022-12-05T09:40:59;8.98;;;5.63;;
58214;SDS011;44011;52.218;1.480;2022-12-05T09:46:28;13.90;;;4.78;;
58214;SDS011;44011;52.218;1.480;2022-12-05T09:49:00;7.60;;;4.18;;
58214;SDS011;44011;52.218;1.480;2022-12-05T09:51:26;8.27;;;3.92;;
58214;SDS011;44011;52.218;1.480;2022-12-05T09:53:52;6.85;;;4.38;;
58214;SDS011;44011;52.218;1.480;2022-12-05T09:56:25;7.53;;;4.10;;
58214;SDS011;44011;52.218;1.480;2022-12-05T09:58:52;9.25;;;3.42;;
58214;SDS011;44011;52.218;1.480;2022-12-05T10:06:20;5.90;;;2.88;;
58214;SDS011;44011;52.218;1.480;2022-12-05T10:09:00;3.92;;;2.35;;
58214;SDS011;44011;52.218;1.480;2022-12-05T10:11:38;6.57;;;2.30;;
58214;SDS011;44011;52.218;1.480;2022-12-05T10:16:47;5.82;;;2.72;;
58214;SDS011;44011;52.218;1.480;2022-12-05T10:19:15;5.25;;;3.45;;
58214;SDS011;44011;52.218;1.480;2022-12-05T10:22:25;7.82;;;3.70;;
58214;SDS011;44011;52.218;1.480;2022-12-05T10:28:14;10.02;;;3.42;;
58214;SDS011;44011;52.218;1.480;2022-12-05T10:30:12;3.50;;;2.47;;
58214;SDS011;44011;52.218;1.480;2022-12-05T10:35:17;6.55;;;2.47;;
58214;SDS011;44011;52.218;1.480;2022-12-05T10:37:45;7.05;;;3.08;;
58214;SDS011;44011;52.218;1.480;2022-12-05T10:40:12;5.72;;;3.30;;
58214;SDS011;44011;52.218;1.480;2022-12-05T10:42:38;8.52;;;3.83;;
58214;SDS011;44011;52.218;1.480;2022-12-05T10:45:04;5.63;;;2.78;;
58214;SDS011;44011;52.218;1.480;2022-12-05T10:47:30;5.40;;;3.65;;
58214;SDS011;44011;52.218;1.480;2022-12-05T10:49:57;6.43;;;3.20;;
58214;SDS011;44011;52.218;1.480;2022-12-05T10:52:24;6.47;;;3.50;;
58214;SDS011;44011;52.218;1.480;2022-12-05T10:55:00;8.80;;;3.13;;
58214;SDS011;44011;52.218;1.480;2022-12-05T10:57:27;7.15;;;2.83;;
58214;SDS011;44011;52.218;1.480;2022-12-05T10:59:54;7.05;;;3.40;;
58214;SDS011;44011;52.218;1.480;2022-12-05T11:02:24;6.13;;;2.67;;
58214;SDS011;44011;52.218;1.480;2022-12-05T11:04:50;7.32;;;2.47;;
58214;SDS011;44011;52.218;1.480;2022-12-05T11:09:47;6.20;;;2.67;;
58214;SDS011;44011;52.218;1.480;2022-12-05T11:12:14;7.47;;;2.63;;
58214;SDS011;44011;52.218;1.480;2022-12-05T11:14:52;7.55;;;2.75;;
58214;SDS011;44011;52.218;1.480;2022-12-05T11:17:22;4.10;;;2.05;;
58214;SDS011;44011;52.218;1.480;2022-12-05T11:19:47;4.18;;;1.88;;
58214;SDS011;44011;52.218;1.480;2022-12-05T11:22:15;2.72;;;1.60;;
58214;SDS011;44011;52.218;1.480;2022-12-05T11:24:41;3.97;;;1.63;;
58214;SDS011;44011;52.218;1.480;2022-12-05T11:29:41;5.25;;;1.42;;
58214;SDS011;44011;52.218;1.480;2022-12-05T11:32:18;3.08;;;1.65;;
58214;SDS011;44011;52.218;1.480;2022-12-05T11:37:30;4.32;;;2.00;;
58214;SDS011;44011;52.218;1.480;2022-12-05T11:39:56;8.45;;;1.88;;
58214;SDS011;44011;52.218;1.480;2022-12-05T11:42:34;5.75;;;1.60;;
58214;SDS011;44011;52.218;1.480;2022-12-05T11:48:08;18.33;;;1.52;;
58214;SDS011;44011;52.218;1.480;2022-12-05T11:50:39;3.97;;;1.75;;
58214;SDS011;44011;52.218;1.480;2022-12-05T11:53:25;3.60;;;2.35;;
58214;SDS011;44011;52.218;1.480;2022-12-05T11:56:10;4.05;;;1.25;;
58214;SDS011;44011;52.218;1.480;2022-12-05T11:58:46;3.00;;;1.80;;
58214;SDS011;44011;52.218;1.480;2022-12-05T12:06:43;5.63;;;2.53;;
58214;SDS011;44011;52.218;1.480;2022-12-05T12:09:20;2.92;;;2.05;;
58214;SDS011;44011;52.218;1.480;2022-12-05T12:17:04;7.45;;;2.38;;
58214;SDS011;44011;52.218;1.480;2022-12-05T12:19:40;5.35;;;2.10;;
58214;SDS011;44011;52.218;1.480;2022-12-05T12:22:29;3.63;;;2.00;;
58214;SDS011;44011;52.218;1.480;2022-12-05T12:27:30;3.13;;;2.08;;
58214;SDS011;44011;52.218;1.480;2022-12-05T12:35:19;6.93;;;1.52;;
58214;SDS011;44011;52.218;1.480;2022-12-05T12:40:28;4.55;;;1.70;;
58214;SDS011;44011;52.218;1.480;2022-12-05T12:42:56;3.75;;;1.98;;
58214;SDS011;44011;52.218;1.480;2022-12-05T12:50:20;2.90;;;1.77;;
58214;SDS011;44011;52.218;1.480;2022-12-05T12:58:09;3.08;;;1.75;;
58214;SDS011;44011;52.218;1.480;2022-12-05T13:00:46;3.97;;;1.77;;
58214;SDS011;44011;52.218;1.480;2022-12-05T13:03:50;2.97;;;2.05;;
58214;SDS011;44011;52.218;1.480;2022-12-05T13:06:20;2.50;;;1.50;;
58214;SDS011;44011;52.218;1.480;2022-12-05T13:08:52;4.10;;;1.77;;
58214;SDS011;44011;52.218;1.480;2022-12-05T13:11:19;3.92;;;2.03;;
58214;SDS011;44011;52.218;1.480;2022-12-05T13:13:47;3.95;;;2.20;;
58214;SDS011;44011;52.218;1.480;2022-12-05T13:16:24;3.50;;;2.15;;
58214;SDS011;44011;52.218;1.480;2022-12-05T13:18:51;2.63;;;1.73;;
58214;SDS011;44011;52.218;1.480;2022-12-05T13:21:18;6.82;;;1.98;;
58214;SDS011;44011;52.218;1.480;2022-12-05T13:23:47;6.50;;;2.28;;
58214;SDS011;44011;52.218;1.480;2022-12-05T13:26:14;5.82;;;2.33;;
58214;SDS011;44011;52.218;1.480;2022-12-05T13:28:46;11.38;;;2.25;;
58214;SDS011;44011;52.218;1.480;2022-12-05T13:31:12;3.58;;;1.95;;
58214;SDS011;44011;52.218;1.480;2022-12-05T13:36:13;4.28;;;1.60;;
58214;SDS011;44011;52.218;1.480;2022-12-05T13:39:20;3.42;;;1.73;;
58214;SDS011;44011;52.218;1.480;2022-12-05T13:42:02;2.25;;;1.05;;
58214;SDS011;44011;52.218;1.480;2022-12-05T13:44:41;3.45;;;1.40;;
58214;SDS011;44011;52.218;1.480;2022-12-05T13:47:19;2.17;;;1.40;;
58214;SDS011;44011;52.218;1.480;2022-12-05T13:49:49;6.28;;;1.85;;
58214;SDS011;44011;52.218;1.480;2022-12-05T13:52:21;3.15;;;1.60;;
58214;SDS011;44011;52.218;1.480;2022-12-05T13:55:30;4.13;;;2.08;;
58214;SDS011;44011;52.218;1.480;2022-12-05T14:07:45;6.00;;;1.42;;
58214;SDS011;44011;52.218;1.480;2022-12-05T14:10:12;13.45;;;2.00;;
58214;SDS011;44011;52.218;1.480;2022-12-05T14:12:48;5.82;;;1.75;;
58214;SDS011;44011;52.218;1.480;2022-12-05T14:15:31;5.95;;;1.83;;
58214;SDS011;44011;52.218;1.480;2022-12-05T14:18:04;6.35;;;2.40;;
58214;SDS011;44011;52.218;1.480;2022-12-05T14:20:33;6.32;;;2.03;;
58214;SDS011;44011;52.218;1.480;2022-12-05T14:23:10;6.45;;;1.67;;
58214;SDS011;44011;52.218;1.480;2022-12-05T14:26:22;6.55;;;2.40;;
58214;SDS011;44011;52.218;1.480;2022-12-05T14:33:33;6.63;;;2.05;;
58214;SDS011;44011;52.218;1.480;2022-12-05T14:36:03;7.47;;;2.60;;
58214;SDS011;44011;52.218;1.480;2022-12-05T14:38:30;6.38;;;3.28;;
58214;SDS011;44011;52.218;1.480;2022-12-05T14:41:09;7.60;;;2.40;;
58214;SDS011;44011;52.218;1.480;2022-12-05T14:43:35;5.82;;;1.92;;
58214;SDS011;44011;52.218;1.480;2022-12-05T14:46:14;7.35;;;2.72;;
58214;SDS011;44011;52.218;1.480;2022-12-05T14:48:41;18.33;;;2.70;;
58214;SDS011;44011;52.218;1.480;2022-12-05T14:53:53;4.75;;;2.35;;
58214;SDS011;44011;52.218;1.480;2022-12-05T14:56:27;7.00;;;3.20;;
58214;SDS011;44011;52.218;1.480;2022-12-05T14:58:55;15.38;;;6.68;;
58214;SDS011;44011;52.218;1.480;2022-12-05T15:06:49;8.55;;;3.30;;
58214;SDS011;44011;52.218;1.480;2022-12-05T15:12:00;3.05;;;1.75;;
58214;SDS011;44011;52.218;1.480;2022-12-05T15:14:27;4.53;;;2.00;;
58214;SDS011;44011;52.218;1.480;2022-12-05T15:16:54;5.82;;;2.55;;
58214;SDS011;44011;52.218;1.480;2022-12-05T15:22:05;4.43;;;1.67;;
58214;SDS011;44011;52.218;1.480;2022-12-05T15:24:35;2.55;;;1.52;;
58214;SDS011;44011;52.218;1.480;2022-12-05T15:27:02;4.53;;;2.20;;
58214;SDS011;44011;52.218;1.480;2022-12-05T15:29:28;5.90;;;2.13;;
58214;SDS011;44011;52.218;1.480;2022-12-05T15:31:57;7.50;;;1.90;;
58214;SDS011;44011;52.218;1.480;2022-12-05T15:34:41;5.30;;;2.03;;
58214;SDS011;44011;52.218;1.480;2022-12-05T15:42:19;3.53;;;2.10;;
58214;SDS011;44011;52.218;1.480;2022-12-05T15:44:45;9.57;;;2.13;;
58214;SDS011;44011;52.218;1.480;2022-12-05T15:47:21;4.05;;;2.20;;
58214;SDS011;44011;52.218;1.480;2022-12-05T15:49:46;7.38;;;2.15;;
58214;SDS011;44011;52.218;1.480;2022-12-05T15:52:17;4.65;;;2.08;;
58214;SDS011;44011;52.218;1.480;2022-12-05T15:54:47;5.97;;;2.67;;
58214;SDS011;44011;52.218;1.480;2022-12-05T15:57:17;6.47;;;2.50;;
58214;SDS011;44011;52.218;1.480;2022-12-05T15:59:46;7.47;;;2.05;;
58214;SDS011;44011;52.218;1.480;2022-12-05T16:02:23;6.47;;;2.63;;
58214;SDS011;44011;52.218;1.480;2022-12-05T16:04:52;5.22;;;2.90;;
58214;SDS011;44011;52.218;1.480;2022-12-05T16:07:20;5.05;;;2.15;;
58214;SDS011;44011;52.218;1.480;2022-12-05T16:09:47;10.05;;;2.13;;
58214;SDS011;44011;52.218;1.480;2022-12-05T16:14:41;6.70;;;2.40;;
58214;SDS011;44011;52.218;1.480;2022-12-05T16:17:07;9.27;;;7.80;;
58214;SDS011;44011;52.218;1.480;2022-12-05T16:19:34;7.95;;;4.30;;
58214;SDS011;44011;52.218;1.480;2022-12-05T16:24:31;12.00;;;6.55;;
58214;SDS011;44011;52.218;1.480;2022-12-05T16:26:58;11.57;;;4.05;;
58214;SDS011;44011;52.218;1.480;2022-12-05T16:29:28;9.43;;;3.50;;
58214;SDS011;44011;52.218;1.480;2022-12-05T16:31:55;4.30;;;2.60;;
58214;SDS011;44011;52.218;1.480;2022-12-05T16:34:22;6.07;;;3.17;;
58214;SDS011;44011;52.218;1.480;2022-12-05T16:36:48;5.93;;;2.88;;
58214;SDS011;44011;52.218;1.480;2022-12-05T16:39:14;9.75;;;4.72;;
58214;SDS011;44011;52.218;1.480;2022-12-05T16:41:39;10.73;;;3.40;;
58214;SDS011;44011;52.218;1.480;2022-12-05T16:44:31;7.22;;;3.25;;
58214;SDS011;44011;52.218;1.480;2022-12-05T16:46:50;5.90;;;3.00;;
58214;SDS011;44011;52.218;1.480;2022-12-05T16:49:21;7.03;;;3.65;;
58214;SDS011;44011;52.218;1.480;2022-12-05T16:51:57;6.80;;;2.90;;
58214;SDS011;44011;52.218;1.480;2022-12-05T16:54:23;6.00;;;2.95;;
58214;SDS011;44011;52.218;1.480;2022-12-05T16:56:48;11.50;;;2.88;;
58214;SDS011;44011;52.218;1.480;2022-12-05T16:59:25;7.03;;;3.38;;
58214;SDS011;44011;52.218;1.480;2022-12-05T17:01:54;8.23;;;2.92;;
58214;SDS011;44011;52.218;1.480;2022-12-05T17:04:19;10.07;;;3.53;;
58214;SDS011;44011;52.218;1.480;2022-12-05T17:06:45;4.60;;;3.03;;
58214;SDS011;44011;52.218;1.480;2022-12-05T17:09:10;6.15;;;3.50;;
58214;SDS011;44011;52.218;1.480;2022-12-05T17:11:35;5.55;;;3.05;;
58214;SDS011;44011;52.218;1.480;2022-12-05T17:14:02;8.23;;;3.05;;